createdAt,value
2023-03-22T00:00:54.456Z,9.80
2023-03-22T00:03:21.601Z,9.80
2023-03-22T00:05:48.448Z,9.80
2023-03-22T00:08:15.752Z,9.80
2023-03-22T00:10:42.481Z,9.80
2023-03-22T00:13:09.828Z,9.80
2023-03-22T00:15:36.578Z,9.80
2023-03-22T00:18:05.726Z,9.80
2023-03-22T00:20:36.074Z,9.70
2023-03-22T00:23:02.804Z,9.80
2023-03-22T00:25:29.513Z,9.80
2023-03-22T00:27:56.424Z,9.80
2023-03-22T00:30:23.157Z,9.80
2023-03-22T00:32:52.498Z,9.80
2023-03-22T00:35:19.330Z,9.80
2023-03-22T00:37:50.746Z,9.80
2023-03-22T00:40:18.393Z,9.80
2023-03-22T00:42:45.617Z,9.80
2023-03-22T00:45:12.638Z,9.80
2023-03-22T00:47:39.416Z,9.70
2023-03-22T00:50:07.035Z,9.80
2023-03-22T00:52:34.296Z,9.70
2023-03-22T00:55:01.166Z,9.80
2023-03-22T00:57:27.940Z,9.80
2023-03-22T00:59:55.874Z,9.80
2023-03-22T01:02:29.518Z,9.80
2023-03-22T01:04:56.525Z,9.80
2023-03-22T01:07:24.058Z,9.70
2023-03-22T01:09:52.554Z,9.80
2023-03-22T01:12:20.111Z,9.80
2023-03-22T01:14:46.878Z,9.80
2023-03-22T01:17:13.819Z,9.80
2023-03-22T01:19:41.321Z,9.80
2023-03-22T01:22:08.980Z,9.80
2023-03-22T01:24:36.115Z,9.80
2023-03-22T01:27:02.984Z,9.80
2023-03-22T01:29:31.243Z,9.80
2023-03-22T01:31:58.150Z,9.80
2023-03-22T01:34:24.902Z,9.80
2023-03-22T01:37:14.018Z,9.80
2023-03-22T01:39:45.944Z,9.90
2023-03-22T01:42:15.878Z,9.80
2023-03-22T01:44:44.711Z,9.80
2023-03-22T01:47:12.051Z,9.90
2023-03-22T01:49:39.674Z,9.90
2023-03-22T01:52:09.053Z,9.90
2023-03-22T01:54:47.780Z,9.90
2023-03-22T01:57:37.454Z,9.90
2023-03-22T02:00:15.804Z,9.90
2023-03-22T02:03:07.137Z,9.90
2023-03-22T02:05:43.496Z,9.90
2023-03-22T02:08:14.829Z,9.90
2023-03-22T02:10:54.023Z,9.90
2023-03-22T02:13:34.204Z,9.90
2023-03-22T02:16:45.627Z,9.80
2023-03-22T02:19:29.350Z,9.90
2023-03-22T02:22:09.947Z,9.80
2023-03-22T02:24:55.556Z,9.80
2023-03-22T02:27:28.484Z,9.80
2023-03-22T02:30:04.616Z,9.80
2023-03-22T02:32:53.054Z,9.80
2023-03-22T02:35:25.974Z,9.80
2023-03-22T02:37:59.325Z,9.80
2023-03-22T02:40:32.830Z,9.80
2023-03-22T02:43:02.763Z,9.80
2023-03-22T02:45:41.982Z,9.80
2023-03-22T02:48:11.869Z,9.80
2023-03-22T02:50:55.746Z,9.80
2023-03-22T02:53:25.656Z,9.80
2023-03-22T02:55:52.538Z,9.80
2023-03-22T02:58:28.594Z,9.80
2023-03-22T03:01:01.829Z,9.80
2023-03-22T03:03:30.536Z,9.80
2023-03-22T03:06:02.942Z,9.80
2023-03-22T03:08:30.640Z,9.80
2023-03-22T03:10:59.948Z,9.80
2023-03-22T03:13:26.708Z,9.80
2023-03-22T03:15:58.597Z,9.80
2023-03-22T03:18:57.363Z,9.80
2023-03-22T03:21:42.526Z,9.80
2023-03-22T03:24:29.544Z,9.80
2023-03-22T03:26:56.477Z,9.80
2023-03-22T03:29:41.069Z,9.80
2023-03-22T03:32:19.832Z,9.80
2023-03-22T03:34:52.893Z,9.80
2023-03-22T03:37:41.421Z,9.80
2023-03-22T03:40:10.872Z,9.80
2023-03-22T03:42:39.005Z,9.80
2023-03-22T03:45:06.733Z,9.80
2023-03-22T03:47:34.447Z,9.80
2023-03-22T03:50:01.655Z,9.70
2023-03-22T03:52:29.366Z,9.70
2023-03-22T03:54:56.239Z,9.70
2023-03-22T03:57:28.709Z,9.80
2023-03-22T03:59:55.636Z,9.80
2023-03-22T04:02:41.295Z,9.80
2023-03-22T04:05:15.368Z,9.80
2023-03-22T04:07:42.799Z,9.80
2023-03-22T04:10:09.984Z,9.80
2023-03-22T04:12:37.269Z,9.80
2023-03-22T04:15:12.426Z,9.80
2023-03-22T04:17:40.381Z,9.80
2023-03-22T04:20:10.782Z,9.80
2023-03-22T04:22:41.126Z,9.80
2023-03-22T04:25:15.217Z,9.80
2023-03-22T04:27:51.385Z,9.80
2023-03-22T04:30:20.203Z,9.80
2023-03-22T04:33:08.379Z,9.80
2023-03-22T04:35:57.283Z,9.80
2023-03-22T04:38:30.741Z,9.90
2023-03-22T04:40:57.938Z,9.90
2023-03-22T04:43:39.291Z,9.90
2023-03-22T04:46:12.574Z,9.90
2023-03-22T04:48:46.293Z,9.90
2023-03-22T04:51:13.390Z,9.80
2023-03-22T04:53:49.007Z,9.80
2023-03-22T04:56:15.975Z,9.80
2023-03-22T04:58:44.597Z,9.80
2023-03-22T05:01:13.430Z,9.80
2023-03-22T05:03:45.454Z,9.80
2023-03-22T05:06:12.288Z,9.80
2023-03-22T05:09:02.118Z,9.80
2023-03-22T05:11:29.115Z,9.80
2023-03-22T05:14:16.356Z,9.80
2023-03-22T05:16:43.299Z,9.90
2023-03-22T05:19:16.261Z,9.90
2023-03-22T05:21:47.871Z,9.80
2023-03-22T05:24:15.546Z,9.90
2023-03-22T05:26:46.314Z,9.90
2023-03-22T05:29:13.244Z,9.90
2023-03-22T05:31:59.278Z,9.90
2023-03-22T05:34:35.327Z,9.80
2023-03-22T05:37:10.204Z,9.90
2023-03-22T05:39:49.283Z,9.80
2023-03-22T05:42:16.926Z,9.90
2023-03-22T05:44:43.698Z,9.90
2023-03-22T05:47:13.054Z,9.90
2023-03-22T05:49:50.628Z,9.90
2023-03-22T05:52:18.016Z,9.90
2023-03-22T05:54:56.770Z,9.90
2023-03-22T05:57:23.598Z,9.90
2023-03-22T05:59:53.970Z,9.90
2023-03-22T06:02:26.339Z,9.90
2023-03-22T06:04:53.273Z,9.90
2023-03-22T06:07:20.737Z,10.00
2023-03-22T06:09:52.478Z,10.00
2023-03-22T06:12:24.730Z,10.00
2023-03-22T06:15:14.325Z,9.90
2023-03-22T06:18:10.320Z,10.00
2023-03-22T06:20:42.156Z,10.00
2023-03-22T06:23:15.356Z,10.00
2023-03-22T06:25:44.795Z,10.10
2023-03-22T06:28:11.862Z,10.10
2023-03-22T06:30:42.490Z,10.10
2023-03-22T06:33:23.316Z,10.20
2023-03-22T06:35:56.262Z,10.20
2023-03-22T06:38:32.001Z,10.30
2023-03-22T06:40:58.950Z,10.30
2023-03-22T06:43:26.407Z,10.30
2023-03-22T06:46:01.061Z,10.40
2023-03-22T06:48:33.388Z,10.40
2023-03-22T06:51:05.729Z,10.40
2023-03-22T06:53:35.197Z,10.40
2023-03-22T06:56:03.952Z,10.40
2023-03-22T06:58:35.469Z,10.40
2023-03-22T07:01:02.585Z,10.40
2023-03-22T07:03:31.446Z,10.40
2023-03-22T07:06:05.093Z,10.40
2023-03-22T07:08:34.072Z,10.40
2023-03-22T07:11:01.435Z,10.50
2023-03-22T07:13:28.794Z,10.40
2023-03-22T07:16:01.049Z,10.50
2023-03-22T07:18:44.705Z,10.50
2023-03-22T07:21:11.498Z,10.50
2023-03-22T07:23:41.336Z,10.50
2023-03-22T07:26:13.374Z,10.50
2023-03-22T07:28:44.507Z,10.50
2023-03-22T07:31:13.250Z,10.60
2023-03-22T07:34:12.547Z,10.50
2023-03-22T07:36:58.570Z,10.60
2023-03-22T07:39:28.884Z,10.60
2023-03-22T07:41:56.129Z,10.60
2023-03-22T07:44:23.181Z,10.70
2023-03-22T07:47:08.886Z,10.70
2023-03-22T07:50:14.654Z,10.70
2023-03-22T07:52:45.562Z,10.80
2023-03-22T07:55:13.666Z,10.80
2023-03-22T07:57:41.235Z,10.80
2023-03-22T08:00:12.129Z,10.80
2023-03-22T08:03:02.624Z,10.90
2023-03-22T08:05:49.468Z,10.90
2023-03-22T08:08:16.517Z,10.90
2023-03-22T08:10:48.586Z,10.90
2023-03-22T08:13:15.501Z,10.90
2023-03-22T08:15:43.382Z,11.00
2023-03-22T08:18:10.757Z,11.00
2023-03-22T08:20:40.009Z,11.00
2023-03-22T08:23:15.917Z,11.00
2023-03-22T08:26:14.779Z,11.10
2023-03-22T08:28:41.646Z,11.10
2023-03-22T08:31:14.730Z,11.20
2023-03-22T08:33:43.689Z,11.20
2023-03-22T08:36:12.523Z,11.30
2023-03-22T08:38:46.041Z,11.30
2023-03-22T08:41:16.179Z,11.40
2023-03-22T08:43:43.192Z,11.50
2023-03-22T08:46:10.173Z,11.50
2023-03-22T08:48:38.521Z,11.50
2023-03-22T08:51:10.727Z,11.50
2023-03-22T08:53:51.940Z,11.60
2023-03-22T08:56:59.079Z,11.60
2023-03-22T08:59:44.578Z,11.80
2023-03-22T09:02:43.388Z,11.80
2023-03-22T09:05:10.476Z,11.90
2023-03-22T09:07:38.333Z,12.00
2023-03-22T09:10:11.677Z,12.00
2023-03-22T09:12:42.362Z,12.10
2023-03-22T09:15:09.601Z,12.10
2023-03-22T09:17:39.762Z,12.20
2023-03-22T09:20:12.875Z,12.30
2023-03-22T09:22:42.543Z,12.30
2023-03-22T09:25:12.778Z,12.40
2023-03-22T09:27:42.303Z,12.30
2023-03-22T09:30:09.511Z,12.40
2023-03-22T09:32:36.546Z,12.40
2023-03-22T09:35:04.738Z,12.40
2023-03-22T09:37:39.302Z,12.40
2023-03-22T09:40:07.598Z,12.50
2023-03-22T09:42:42.684Z,12.50
2023-03-22T09:45:14.743Z,12.50
2023-03-22T09:47:45.371Z,12.60
2023-03-22T09:50:14.060Z,12.60
2023-03-22T09:52:41.201Z,12.70
2023-03-22T09:55:16.820Z,12.70
2023-03-22T09:57:44.850Z,12.70
2023-03-22T10:00:15.571Z,12.70
2023-03-22T10:02:45.592Z,12.80
2023-03-22T10:05:31.039Z,12.80
2023-03-22T10:08:24.168Z,12.70
2023-03-22T10:10:52.516Z,12.70
2023-03-22T10:13:30.971Z,12.70
2023-03-22T10:15:59.821Z,12.60
2023-03-22T10:18:30.638Z,12.70
2023-03-22T10:21:02.617Z,12.70
2023-03-22T10:23:35.416Z,12.60
2023-03-22T10:26:03.117Z,12.70
2023-03-22T10:28:44.111Z,12.70
2023-03-22T10:31:14.461Z,12.70
2023-03-22T10:33:50.584Z,12.70
2023-03-22T10:36:19.529Z,12.80
2023-03-22T10:38:49.129Z,12.90
2023-03-22T10:41:17.297Z,13.00
2023-03-22T10:43:44.660Z,13.10
2023-03-22T10:46:25.854Z,13.20
2023-03-22T10:48:57.118Z,13.20
2023-03-22T10:51:27.067Z,13.20
2023-03-22T10:53:54.524Z,13.20
2023-03-22T10:56:21.407Z,13.20
2023-03-22T10:58:49.240Z,13.20
2023-03-22T11:01:24.404Z,13.20
2023-03-22T11:03:52.090Z,13.20
2023-03-22T11:06:20.916Z,13.20
2023-03-22T11:08:57.310Z,13.20
2023-03-22T11:11:24.168Z,13.30
2023-03-22T11:13:53.226Z,13.30
2023-03-22T11:16:20.333Z,13.40
2023-03-22T11:18:47.255Z,13.40
2023-03-22T11:21:15.904Z,13.40
2023-03-22T11:23:46.285Z,13.30
2023-03-22T11:26:13.794Z,13.20
2023-03-22T11:28:42.826Z,13.20
2023-03-22T11:31:11.098Z,13.20
2023-03-22T11:33:38.583Z,13.20
2023-03-22T11:36:16.348Z,13.20
2023-03-22T11:38:44.948Z,13.20
2023-03-22T11:41:24.506Z,13.10
2023-03-22T11:43:54.040Z,13.10
2023-03-22T11:46:21.631Z,13.20
2023-03-22T11:48:50.431Z,13.20
2023-03-22T11:54:37.082Z,13.20
2023-03-22T11:57:12.062Z,13.10
2023-03-22T11:59:48.821Z,13.10
2023-03-22T12:02:18.918Z,13.10
2023-03-22T12:04:47.912Z,13.10
2023-03-22T12:07:16.803Z,13.10
2023-03-22T12:10:03.593Z,13.20
2023-03-22T12:13:01.964Z,13.20
2023-03-22T12:15:32.988Z,13.20
2023-03-22T12:18:13.703Z,13.10
2023-03-22T12:20:41.197Z,13.10
2023-03-22T12:23:16.620Z,13.00
2023-03-22T12:25:46.314Z,13.10
2023-03-22T12:28:18.334Z,13.10
2023-03-22T12:30:48.498Z,13.10
2023-03-22T12:33:27.269Z,13.10
2023-03-22T12:35:58.785Z,13.10
2023-03-22T12:38:30.421Z,13.10
2023-03-22T12:41:03.553Z,13.10
2023-03-22T12:43:39.225Z,13.10
2023-03-22T12:46:19.944Z,13.10
2023-03-22T12:49:01.171Z,13.10
2023-03-22T12:51:29.900Z,13.10
2023-03-22T12:53:58.576Z,13.00
2023-03-22T12:56:43.544Z,12.90
2023-03-22T12:59:27.034Z,12.90
2023-03-22T13:02:14.033Z,12.70
2023-03-22T13:04:43.338Z,12.60
2023-03-22T13:07:39.657Z,12.60
2023-03-22T13:10:27.693Z,12.50
2023-03-22T13:13:09.229Z,12.50
2023-03-22T13:15:42.068Z,12.50
2023-03-22T13:18:33.069Z,12.50
2023-03-22T13:21:19.957Z,12.50
2023-03-22T13:24:16.280Z,12.40
2023-03-22T13:26:47.813Z,12.40
2023-03-22T13:29:26.726Z,12.40
2023-03-22T13:31:58.618Z,12.40
2023-03-22T13:34:46.982Z,12.30
2023-03-22T13:37:30.288Z,12.40
2023-03-22T13:40:02.318Z,12.40
2023-03-22T13:42:36.734Z,12.40
2023-03-22T13:45:03.985Z,12.40
2023-03-22T13:47:30.928Z,12.40
2023-03-22T13:50:02.564Z,12.40
2023-03-22T13:52:34.462Z,12.40
2023-03-22T13:55:01.546Z,12.40
2023-03-22T13:57:39.610Z,12.40
2023-03-22T14:00:20.621Z,12.40
2023-03-22T14:02:48.836Z,12.40
2023-03-22T14:05:17.640Z,12.40
2023-03-22T14:07:54.622Z,12.50
2023-03-22T14:10:24.762Z,12.40
2023-03-22T14:12:54.036Z,12.50
2023-03-22T14:15:26.599Z,12.50
2023-03-22T14:18:00.160Z,12.40
2023-03-22T14:20:31.045Z,12.40
